Sejmchan, Russia
Current Conditions -  °F | °C
As of 7:00 PM on Monday 20 Oct 2014 (Local Time) from UHMM Reporting Station
Overcast Overcast  
Wind Chill: 26°   Ceiling: 2000
Heat Index: 37°   Visibility: 6mi
Dew Point: 34°   Wind: 22mph
Humidity: 87%   Direction: 100°E
Pressure: 29.74"   Gusts: 34mph
Location:  62.92°N, 152.42°E
Report Text: UHMM 200800Z 10010G15MPS 9999 OVC020CB 03/01 Q1007 NOSIG RMKQFE740 88190060
Loading
Personal Weather Stations






























Interactive Weather Map
Tropical Storm Tracking
New forecast layout! Learn more

10-Day Weather Forecast

Advertisements
Track Severe Weather on mobile